sensor_id;sensor_type;location;lat;lon;timestamp;temperature;humidity
59128;DHT22;44912;52.754;5.994;2023-04-06T00:00:47;5.00;99.90
59128;DHT22;44912;52.754;5.994;2023-04-06T00:03:12;5.00;99.90
59128;DHT22;44912;52.754;5.994;2023-04-06T00:05:38;4.90;99.90
59128;DHT22;44912;52.754;5.994;2023-04-06T00:08:04;5.00;99.90
59128;DHT22;44912;52.754;5.994;2023-04-06T00:10:29;4.90;99.90
59128;DHT22;44912;52.754;5.994;2023-04-06T00:12:55;4.90;99.90
59128;DHT22;44912;52.754;5.994;2023-04-06T00:15:22;4.80;99.90
59128;DHT22;44912;52.754;5.994;2023-04-06T00:17:48;4.80;99.90
59128;DHT22;44912;52.754;5.994;2023-04-06T00:20:14;4.80;99.90
59128;DHT22;44912;52.754;5.994;2023-04-06T00:22:40;4.80;99.90
59128;DHT22;44912;52.754;5.994;2023-04-06T00:25:06;4.80;99.90
59128;DHT22;44912;52.754;5.994;2023-04-06T00:27:31;4.70;99.90
59128;DHT22;44912;52.754;5.994;2023-04-06T00:29:57;4.70;99.90
59128;DHT22;44912;52.754;5.994;2023-04-06T00:32:22;4.70;99.90
59128;DHT22;44912;52.754;5.994;2023-04-06T00:34:48;4.60;99.90
59128;DHT22;44912;52.754;5.994;2023-04-06T00:37:13;4.60;99.90
59128;DHT22;44912;52.754;5.994;2023-04-06T00:39:39;4.60;99.90
59128;DHT22;44912;52.754;5.994;2023-04-06T00:42:12;4.50;99.90
59128;DHT22;44912;52.754;5.994;2023-04-06T00:44:42;4.50;99.90
59128;DHT22;44912;52.754;5.994;2023-04-06T00:47:08;4.40;99.90
59128;DHT22;44912;52.754;5.994;2023-04-06T00:49:34;4.40;99.90
59128;DHT22;44912;52.754;5.994;2023-04-06T00:52:00;4.40;99.90
59128;DHT22;44912;52.754;5.994;2023-04-06T00:54:29;4.40;99.90
59128;DHT22;44912;52.754;5.994;2023-04-06T00:56:56;4.30;99.90
59128;DHT22;44912;52.754;5.994;2023-04-06T00:59:21;4.30;99.90
59128;DHT22;44912;52.754;5.994;2023-04-06T01:01:47;4.30;99.90
59128;DHT22;44912;52.754;5.994;2023-04-06T01:04:13;4.30;99.90
59128;DHT22;44912;52.754;5.994;2023-04-06T01:06:39;4.30;99.90
59128;DHT22;44912;52.754;5.994;2023-04-06T01:09:05;4.20;99.90
59128;DHT22;44912;52.754;5.994;2023-04-06T01:11:30;4.30;99.90
59128;DHT22;44912;52.754;5.994;2023-04-06T01:13:56;4.20;99.90
59128;DHT22;44912;52.754;5.994;2023-04-06T01:16:22;4.20;99.90
59128;DHT22;44912;52.754;5.994;2023-04-06T01:18:47;4.20;99.90
59128;DHT22;44912;52.754;5.994;2023-04-06T01:21:13;4.20;99.90
59128;DHT22;44912;52.754;5.994;2023-04-06T01:23:47;4.10;99.90
59128;DHT22;44912;52.754;5.994;2023-04-06T01:26:13;4.10;99.90
59128;DHT22;44912;52.754;5.994;2023-04-06T01:28:38;4.00;99.90
59128;DHT22;44912;52.754;5.994;2023-04-06T01:31:07;4.00;99.90
59128;DHT22;44912;52.754;5.994;2023-04-06T01:33:33;4.00;99.90
59128;DHT22;44912;52.754;5.994;2023-04-06T01:35:58;3.90;99.90
59128;DHT22;44912;52.754;5.994;2023-04-06T01:38:24;3.80;99.90
59128;DHT22;44912;52.754;5.994;2023-04-06T01:40:50;3.80;99.90
59128;DHT22;44912;52.754;5.994;2023-04-06T01:43:16;3.80;99.90
59128;DHT22;44912;52.754;5.994;2023-04-06T01:45:42;3.70;99.90
59128;DHT22;44912;52.754;5.994;2023-04-06T01:48:07;3.70;99.90
59128;DHT22;44912;52.754;5.994;2023-04-06T01:50:33;3.70;99.90
59128;DHT22;44912;52.754;5.994;2023-04-06T01:52:58;3.70;99.90
59128;DHT22;44912;52.754;5.994;2023-04-06T01:55:24;3.70;99.90
59128;DHT22;44912;52.754;5.994;2023-04-06T01:57:49;3.70;99.90
59128;DHT22;44912;52.754;5.994;2023-04-06T02:00:15;3.70;99.90
59128;DHT22;44912;52.754;5.994;2023-04-06T02:02:41;3.60;99.90
59128;DHT22;44912;52.754;5.994;2023-04-06T02:05:07;3.60;99.90
59128;DHT22;44912;52.754;5.994;2023-04-06T02:07:33;3.60;99.90
59128;DHT22;44912;52.754;5.994;2023-04-06T02:09:59;3.50;99.90
59128;DHT22;44912;52.754;5.994;2023-04-06T02:12:24;3.60;99.90
59128;DHT22;44912;52.754;5.994;2023-04-06T02:14:50;3.50;99.90
59128;DHT22;44912;52.754;5.994;2023-04-06T02:17:15;3.50;99.90
59128;DHT22;44912;52.754;5.994;2023-04-06T02:19:41;3.40;99.90
59128;DHT22;44912;52.754;5.994;2023-04-06T02:22:06;3.50;99.90
59128;DHT22;44912;52.754;5.994;2023-04-06T02:24:32;3.40;99.90
59128;DHT22;44912;52.754;5.994;2023-04-06T02:26:58;3.40;99.90
59128;DHT22;44912;52.754;5.994;2023-04-06T02:29:24;3.40;99.90
59128;DHT22;44912;52.754;5.994;2023-04-06T02:31:49;3.40;99.90
59128;DHT22;44912;52.754;5.994;2023-04-06T02:34:15;3.40;99.90
59128;DHT22;44912;52.754;5.994;2023-04-06T02:36:46;3.40;99.90
59128;DHT22;44912;52.754;5.994;2023-04-06T02:39:13;3.40;99.90
59128;DHT22;44912;52.754;5.994;2023-04-06T02:41:39;3.40;99.90
59128;DHT22;44912;52.754;5.994;2023-04-06T02:44:07;3.40;99.90
59128;DHT22;44912;52.754;5.994;2023-04-06T02:46:33;3.40;99.90
59128;DHT22;44912;52.754;5.994;2023-04-06T02:48:59;3.40;99.90
59128;DHT22;44912;52.754;5.994;2023-04-06T02:51:26;3.30;99.90
59128;DHT22;44912;52.754;5.994;2023-04-06T02:53:52;3.30;99.90
59128;DHT22;44912;52.754;5.994;2023-04-06T02:56:17;3.30;99.90
59128;DHT22;44912;52.754;5.994;2023-04-06T02:58:43;3.30;99.90
59128;DHT22;44912;52.754;5.994;2023-04-06T03:01:09;3.30;99.90
59128;DHT22;44912;52.754;5.994;2023-04-06T03:03:34;3.30;99.90
59128;DHT22;44912;52.754;5.994;2023-04-06T03:06:00;3.30;99.90
59128;DHT22;44912;52.754;5.994;2023-04-06T03:08:25;3.30;99.90
59128;DHT22;44912;52.754;5.994;2023-04-06T03:10:51;3.20;99.90
59128;DHT22;44912;52.754;5.994;2023-04-06T03:13:16;3.20;99.90
59128;DHT22;44912;52.754;5.994;2023-04-06T03:15:42;3.20;99.90
59128;DHT22;44912;52.754;5.994;2023-04-06T03:18:07;3.10;99.90
59128;DHT22;44912;52.754;5.994;2023-04-06T03:20:33;3.10;99.90
59128;DHT22;44912;52.754;5.994;2023-04-06T03:22:59;3.10;99.90
59128;DHT22;44912;52.754;5.994;2023-04-06T03:25:25;3.10;99.90
59128;DHT22;44912;52.754;5.994;2023-04-06T03:27:50;3.00;99.90
59128;DHT22;44912;52.754;5.994;2023-04-06T03:30:16;3.00;99.90
59128;DHT22;44912;52.754;5.994;2023-04-06T03:32:43;3.00;99.90
59128;DHT22;44912;52.754;5.994;2023-04-06T03:35:09;2.90;99.90
59128;DHT22;44912;52.754;5.994;2023-04-06T03:37:35;2.90;99.90
59128;DHT22;44912;52.754;5.994;2023-04-06T03:40:01;2.90;99.90
59128;DHT22;44912;52.754;5.994;2023-04-06T03:42:27;2.90;99.90
59128;DHT22;44912;52.754;5.994;2023-04-06T03:44:52;2.90;99.90
59128;DHT22;44912;52.754;5.994;2023-04-06T03:47:18;2.80;99.90
59128;DHT22;44912;52.754;5.994;2023-04-06T03:49:43;2.80;99.90
59128;DHT22;44912;52.754;5.994;2023-04-06T03:52:09;2.80;99.90
59128;DHT22;44912;52.754;5.994;2023-04-06T03:54:35;2.70;99.90
59128;DHT22;44912;52.754;5.994;2023-04-06T03:57:01;2.70;99.90
59128;DHT22;44912;52.754;5.994;2023-04-06T03:59:27;2.70;99.90
59128;DHT22;44912;52.754;5.994;2023-04-06T04:01:52;2.70;99.90
59128;DHT22;44912;52.754;5.994;2023-04-06T04:04:18;2.70;99.90
59128;DHT22;44912;52.754;5.994;2023-04-06T04:06:43;2.70;99.90
59128;DHT22;44912;52.754;5.994;2023-04-06T04:09:09;2.70;99.90
59128;DHT22;44912;52.754;5.994;2023-04-06T04:11:35;2.80;99.90
59128;DHT22;44912;52.754;5.994;2023-04-06T04:14:00;2.80;99.90
59128;DHT22;44912;52.754;5.994;2023-04-06T04:16:26;2.80;99.90
59128;DHT22;44912;52.754;5.994;2023-04-06T04:18:51;2.80;99.90
59128;DHT22;44912;52.754;5.994;2023-04-06T04:21:17;2.80;99.90
59128;DHT22;44912;52.754;5.994;2023-04-06T04:23:43;2.80;99.90
59128;DHT22;44912;52.754;5.994;2023-04-06T04:26:08;2.80;99.90
59128;DHT22;44912;52.754;5.994;2023-04-06T04:28:34;2.80;99.90
59128;DHT22;44912;52.754;5.994;2023-04-06T04:31:00;2.80;99.90
59128;DHT22;44912;52.754;5.994;2023-04-06T04:33:25;2.80;99.90
59128;DHT22;44912;52.754;5.994;2023-04-06T04:35:51;2.80;99.90
59128;DHT22;44912;52.754;5.994;2023-04-06T04:38:16;2.80;99.90
59128;DHT22;44912;52.754;5.994;2023-04-06T04:40:42;2.70;99.90
59128;DHT22;44912;52.754;5.994;2023-04-06T04:43:07;2.70;99.90
59128;DHT22;44912;52.754;5.994;2023-04-06T04:45:33;2.70;99.90
59128;DHT22;44912;52.754;5.994;2023-04-06T04:47:58;2.70;99.90
59128;DHT22;44912;52.754;5.994;2023-04-06T04:50:24;2.70;99.90
59128;DHT22;44912;52.754;5.994;2023-04-06T04:52:50;2.70;99.90
59128;DHT22;44912;52.754;5.994;2023-04-06T04:55:16;2.60;99.90
59128;DHT22;44912;52.754;5.994;2023-04-06T04:57:42;2.70;99.90
59128;DHT22;44912;52.754;5.994;2023-04-06T05:00:08;2.70;99.90
59128;DHT22;44912;52.754;5.994;2023-04-06T05:02:34;2.70;99.90
59128;DHT22;44912;52.754;5.994;2023-04-06T05:04:59;2.60;99.90
59128;DHT22;44912;52.754;5.994;2023-04-06T05:07:25;2.70;99.90
59128;DHT22;44912;52.754;5.994;2023-04-06T05:09:50;2.70;99.90
59128;DHT22;44912;52.754;5.994;2023-04-06T05:12:16;2.70;99.90
59128;DHT22;44912;52.754;5.994;2023-04-06T05:14:42;2.70;99.90
59128;DHT22;44912;52.754;5.994;2023-04-06T05:17:07;2.70;99.90
59128;DHT22;44912;52.754;5.994;2023-04-06T05:19:33;2.70;99.90
59128;DHT22;44912;52.754;5.994;2023-04-06T05:21:59;2.70;99.90
59128;DHT22;44912;52.754;5.994;2023-04-06T05:24:24;2.80;99.90
59128;DHT22;44912;52.754;5.994;2023-04-06T05:26:50;2.80;99.90
59128;DHT22;44912;52.754;5.994;2023-04-06T05:29:16;2.90;99.90
59128;DHT22;44912;52.754;5.994;2023-04-06T05:31:42;3.00;99.90
59128;DHT22;44912;52.754;5.994;2023-04-06T05:34:08;3.00;99.90
59128;DHT22;44912;52.754;5.994;2023-04-06T05:36:34;3.10;99.90
59128;DHT22;44912;52.754;5.994;2023-04-06T05:39:00;3.10;99.90
59128;DHT22;44912;52.754;5.994;2023-04-06T05:41:25;3.10;99.90
59128;DHT22;44912;52.754;5.994;2023-04-06T05:43:51;3.10;99.90
59128;DHT22;44912;52.754;5.994;2023-04-06T05:46:18;3.10;99.90
59128;DHT22;44912;52.754;5.994;2023-04-06T05:48:44;3.20;99.90
59128;DHT22;44912;52.754;5.994;2023-04-06T05:51:10;3.20;99.90
59128;DHT22;44912;52.754;5.994;2023-04-06T05:53:36;3.30;99.90
59128;DHT22;44912;52.754;5.994;2023-04-06T05:56:02;3.30;99.90
59128;DHT22;44912;52.754;5.994;2023-04-06T05:58:28;3.40;99.90
59128;DHT22;44912;52.754;5.994;2023-04-06T06:01:00;3.40;99.90
59128;DHT22;44912;52.754;5.994;2023-04-06T06:03:26;3.50;99.90
59128;DHT22;44912;52.754;5.994;2023-04-06T06:05:52;3.50;99.90
59128;DHT22;44912;52.754;5.994;2023-04-06T06:08:17;3.70;99.90
59128;DHT22;44912;52.754;5.994;2023-04-06T06:10:43;3.80;99.90
59128;DHT22;44912;52.754;5.994;2023-04-06T06:13:08;3.90;99.90
59128;DHT22;44912;52.754;5.994;2023-04-06T06:15:34;3.90;99.90
59128;DHT22;44912;52.754;5.994;2023-04-06T06:18:00;4.00;99.90
59128;DHT22;44912;52.754;5.994;2023-04-06T06:20:26;4.10;99.90
59128;DHT22;44912;52.754;5.994;2023-04-06T06:22:52;4.20;99.90
59128;DHT22;44912;52.754;5.994;2023-04-06T06:25:18;4.30;99.90
59128;DHT22;44912;52.754;5.994;2023-04-06T06:27:44;4.40;99.90
59128;DHT22;44912;52.754;5.994;2023-04-06T06:30:10;4.60;99.90
59128;DHT22;44912;52.754;5.994;2023-04-06T06:32:35;4.70;99.90
59128;DHT22;44912;52.754;5.994;2023-04-06T06:35:01;4.80;99.90
59128;DHT22;44912;52.754;5.994;2023-04-06T06:37:26;4.90;99.90
59128;DHT22;44912;52.754;5.994;2023-04-06T06:39:52;5.00;99.90
59128;DHT22;44912;52.754;5.994;2023-04-06T06:42:18;5.10;99.90
59128;DHT22;44912;52.754;5.994;2023-04-06T06:44:43;5.10;99.90
59128;DHT22;44912;52.754;5.994;2023-04-06T06:47:09;5.10;99.90
59128;DHT22;44912;52.754;5.994;2023-04-06T06:49:34;5.20;99.90
59128;DHT22;44912;52.754;5.994;2023-04-06T06:52:00;5.30;99.90
59128;DHT22;44912;52.754;5.994;2023-04-06T06:54:26;5.50;99.90
59128;DHT22;44912;52.754;5.994;2023-04-06T06:56:51;5.70;99.90
59128;DHT22;44912;52.754;5.994;2023-04-06T06:59:17;5.90;99.90
59128;DHT22;44912;52.754;5.994;2023-04-06T07:01:42;6.10;99.90
59128;DHT22;44912;52.754;5.994;2023-04-06T07:04:08;6.30;99.90
59128;DHT22;44912;52.754;5.994;2023-04-06T07:06:35;6.50;99.90
59128;DHT22;44912;52.754;5.994;2023-04-06T07:09:01;6.60;99.90
59128;DHT22;44912;52.754;5.994;2023-04-06T07:11:28;6.70;99.90
59128;DHT22;44912;52.754;5.994;2023-04-06T07:13:54;6.70;99.90
59128;DHT22;44912;52.754;5.994;2023-04-06T07:16:20;6.60;99.90
59128;DHT22;44912;52.754;5.994;2023-04-06T07:18:45;6.60;99.90
59128;DHT22;44912;52.754;5.994;2023-04-06T07:21:11;6.60;99.90
59128;DHT22;44912;52.754;5.994;2023-04-06T07:23:36;6.60;99.90
59128;DHT22;44912;52.754;5.994;2023-04-06T07:26:02;6.60;99.90
59128;DHT22;44912;52.754;5.994;2023-04-06T07:28:27;6.60;99.90
59128;DHT22;44912;52.754;5.994;2023-04-06T07:30:53;6.60;99.90
59128;DHT22;44912;52.754;5.994;2023-04-06T07:33:20;6.70;99.90
59128;DHT22;44912;52.754;5.994;2023-04-06T07:35:45;6.80;99.90
59128;DHT22;44912;52.754;5.994;2023-04-06T07:38:11;6.90;99.90
59128;DHT22;44912;52.754;5.994;2023-04-06T07:40:36;7.10;99.90
59128;DHT22;44912;52.754;5.994;2023-04-06T07:43:02;7.30;99.90
59128;DHT22;44912;52.754;5.994;2023-04-06T07:45:28;7.50;99.90
59128;DHT22;44912;52.754;5.994;2023-04-06T07:47:54;7.70;99.90
59128;DHT22;44912;52.754;5.994;2023-04-06T07:50:19;8.00;99.90
59128;DHT22;44912;52.754;5.994;2023-04-06T07:52:45;8.20;99.90
59128;DHT22;44912;52.754;5.994;2023-04-06T07:55:11;8.40;99.90
59128;DHT22;44912;52.754;5.994;2023-04-06T07:57:36;8.50;99.90
59128;DHT22;44912;52.754;5.994;2023-04-06T08:00:02;8.60;99.90
59128;DHT22;44912;52.754;5.994;2023-04-06T08:02:29;8.60;99.90
59128;DHT22;44912;52.754;5.994;2023-04-06T08:04:55;8.60;99.90
59128;DHT22;44912;52.754;5.994;2023-04-06T08:07:20;8.60;99.90
59128;DHT22;44912;52.754;5.994;2023-04-06T08:09:47;8.70;99.90
59128;DHT22;44912;52.754;5.994;2023-04-06T08:12:12;8.70;99.90
59128;DHT22;44912;52.754;5.994;2023-04-06T08:14:38;8.70;99.90
59128;DHT22;44912;52.754;5.994;2023-04-06T08:17:03;8.80;99.90
59128;DHT22;44912;52.754;5.994;2023-04-06T08:19:29;8.90;99.90
59128;DHT22;44912;52.754;5.994;2023-04-06T08:21:54;9.10;99.90
59128;DHT22;44912;52.754;5.994;2023-04-06T08:24:20;9.20;99.90
59128;DHT22;44912;52.754;5.994;2023-04-06T08:26:46;9.30;99.90
59128;DHT22;44912;52.754;5.994;2023-04-06T08:29:11;9.50;99.90
59128;DHT22;44912;52.754;5.994;2023-04-06T08:31:37;9.70;99.90
59128;DHT22;44912;52.754;5.994;2023-04-06T08:34:04;9.80;99.90
59128;DHT22;44912;52.754;5.994;2023-04-06T08:36:30;9.80;99.90
59128;DHT22;44912;52.754;5.994;2023-04-06T08:38:56;9.80;99.90
59128;DHT22;44912;52.754;5.994;2023-04-06T08:41:21;9.80;99.90
59128;DHT22;44912;52.754;5.994;2023-04-06T08:43:49;9.80;99.90
59128;DHT22;44912;52.754;5.994;2023-04-06T08:46:15;9.80;99.90
59128;DHT22;44912;52.754;5.994;2023-04-06T08:48:42;9.90;99.90
59128;DHT22;44912;52.754;5.994;2023-04-06T08:51:09;10.00;99.90
59128;DHT22;44912;52.754;5.994;2023-04-06T08:53:35;10.10;99.90
59128;DHT22;44912;52.754;5.994;2023-04-06T08:56:01;10.30;99.90
59128;DHT22;44912;52.754;5.994;2023-04-06T08:58:32;10.50;99.90
59128;DHT22;44912;52.754;5.994;2023-04-06T09:00:58;10.60;99.90
59128;DHT22;44912;52.754;5.994;2023-04-06T09:03:26;10.50;99.90
59128;DHT22;44912;52.754;5.994;2023-04-06T09:05:52;10.50;99.90
59128;DHT22;44912;52.754;5.994;2023-04-06T09:08:19;10.50;99.90
59128;DHT22;44912;52.754;5.994;2023-04-06T09:10:45;10.40;99.90
59128;DHT22;44912;52.754;5.994;2023-04-06T09:13:10;10.40;99.90
59128;DHT22;44912;52.754;5.994;2023-04-06T09:15:37;10.40;99.90
59128;DHT22;44912;52.754;5.994;2023-04-06T09:18:03;10.40;99.90
59128;DHT22;44912;52.754;5.994;2023-04-06T09:20:28;10.50;99.90
59128;DHT22;44912;52.754;5.994;2023-04-06T09:22:54;10.40;99.90
59128;DHT22;44912;52.754;5.994;2023-04-06T09:25:22;10.50;99.90
59128;DHT22;44912;52.754;5.994;2023-04-06T09:28:04;10.50;99.90
59128;DHT22;44912;52.754;5.994;2023-04-06T09:30:32;10.50;99.90
59128;DHT22;44912;52.754;5.994;2023-04-06T09:32:57;10.50;99.90
59128;DHT22;44912;52.754;5.994;2023-04-06T09:35:24;10.50;99.90
59128;DHT22;44912;52.754;5.994;2023-04-06T09:37:52;10.60;99.90
59128;DHT22;44912;52.754;5.994;2023-04-06T09:40:18;10.60;99.90
59128;DHT22;44912;52.754;5.994;2023-04-06T09:42:46;10.60;99.90
59128;DHT22;44912;52.754;5.994;2023-04-06T09:45:12;10.70;99.90
59128;DHT22;44912;52.754;5.994;2023-04-06T09:47:40;10.80;99.90
59128;DHT22;44912;52.754;5.994;2023-04-06T09:50:07;10.80;99.90
59128;DHT22;44912;52.754;5.994;2023-04-06T09:52:46;10.90;99.90
59128;DHT22;44912;52.754;5.994;2023-04-06T09:55:36;11.00;99.90
59128;DHT22;44912;52.754;5.994;2023-04-06T09:58:06;11.10;99.90
59128;DHT22;44912;52.754;5.994;2023-04-06T10:00:40;11.20;99.90
59128;DHT22;44912;52.754;5.994;2023-04-06T10:03:19;11.30;99.90
59128;DHT22;44912;52.754;5.994;2023-04-06T10:05:52;11.50;99.90
59128;DHT22;44912;52.754;5.994;2023-04-06T10:08:22;11.60;99.90
59128;DHT22;44912;52.754;5.994;2023-04-06T10:10:50;11.80;99.90
59128;DHT22;44912;52.754;5.994;2023-04-06T10:13:16;11.80;99.90
59128;DHT22;44912;52.754;5.994;2023-04-06T10:15:44;11.90;99.90
59128;DHT22;44912;52.754;5.994;2023-04-06T10:18:10;11.80;99.90
59128;DHT22;44912;52.754;5.994;2023-04-06T10:20:39;11.80;99.90
59128;DHT22;44912;52.754;5.994;2023-04-06T10:23:12;11.70;99.90
59128;DHT22;44912;52.754;5.994;2023-04-06T10:25:56;11.70;99.90
59128;DHT22;44912;52.754;5.994;2023-04-06T10:28:22;11.80;99.90
59128;DHT22;44912;52.754;5.994;2023-04-06T10:30:47;11.80;99.90
59128;DHT22;44912;52.754;5.994;2023-04-06T10:33:18;12.10;99.90
59128;DHT22;44912;52.754;5.994;2023-04-06T10:35:45;12.20;99.90
59128;DHT22;44912;52.754;5.994;2023-04-06T10:38:11;12.30;99.90
59128;DHT22;44912;52.754;5.994;2023-04-06T10:40:40;12.40;99.90
59128;DHT22;44912;52.754;5.994;2023-04-06T10:43:12;12.40;99.90
59128;DHT22;44912;52.754;5.994;2023-04-06T10:45:39;12.50;99.90
59128;DHT22;44912;52.754;5.994;2023-04-06T10:48:18;12.60;99.90
59128;DHT22;44912;52.754;5.994;2023-04-06T10:50:47;12.70;99.90
59128;DHT22;44912;52.754;5.994;2023-04-06T10:53:21;12.80;99.90
59128;DHT22;44912;52.754;5.994;2023-04-06T10:55:48;12.80;99.90
59128;DHT22;44912;52.754;5.994;2023-04-06T10:58:14;12.90;99.90
59128;DHT22;44912;52.754;5.994;2023-04-06T11:00:48;12.90;99.90
59128;DHT22;44912;52.754;5.994;2023-04-06T11:03:13;12.90;99.90
59128;DHT22;44912;52.754;5.994;2023-04-06T11:05:47;12.90;99.90
59128;DHT22;44912;52.754;5.994;2023-04-06T11:08:29;12.80;99.90
59128;DHT22;44912;52.754;5.994;2023-04-06T11:11:06;12.70;99.90
59128;DHT22;44912;52.754;5.994;2023-04-06T11:13:40;12.70;99.90
59128;DHT22;44912;52.754;5.994;2023-04-06T11:16:06;12.70;99.90
59128;DHT22;44912;52.754;5.994;2023-04-06T11:18:31;12.70;99.90
59128;DHT22;44912;52.754;5.994;2023-04-06T11:20:57;12.70;99.90
59128;DHT22;44912;52.754;5.994;2023-04-06T11:23:24;12.70;99.90
59128;DHT22;44912;52.754;5.994;2023-04-06T11:25:52;12.80;99.90
59128;DHT22;44912;52.754;5.994;2023-04-06T11:28:18;12.90;99.90
59128;DHT22;44912;52.754;5.994;2023-04-06T11:30:44;13.10;99.90
59128;DHT22;44912;52.754;5.994;2023-04-06T11:33:10;13.20;99.90
59128;DHT22;44912;52.754;5.994;2023-04-06T11:35:37;13.20;99.90
59128;DHT22;44912;52.754;5.994;2023-04-06T11:38:03;13.20;99.90
59128;DHT22;44912;52.754;5.994;2023-04-06T11:40:29;13.30;99.90
59128;DHT22;44912;52.754;5.994;2023-04-06T11:42:55;13.20;99.90
59128;DHT22;44912;52.754;5.994;2023-04-06T11:45:22;13.20;99.90
59128;DHT22;44912;52.754;5.994;2023-04-06T11:47:58;13.20;99.90
59128;DHT22;44912;52.754;5.994;2023-04-06T11:50:24;13.20;99.90
59128;DHT22;44912;52.754;5.994;2023-04-06T11:52:58;13.10;99.90
59128;DHT22;44912;52.754;5.994;2023-04-06T11:55:26;13.10;99.90
59128;DHT22;44912;52.754;5.994;2023-04-06T11:57:51;13.10;99.90
59128;DHT22;44912;52.754;5.994;2023-04-06T12:00:17;13.10;99.90
59128;DHT22;44912;52.754;5.994;2023-04-06T12:02:46;13.10;99.90
59128;DHT22;44912;52.754;5.994;2023-04-06T12:05:12;13.10;99.90
59128;DHT22;44912;52.754;5.994;2023-04-06T12:07:37;13.10;99.90
59128;DHT22;44912;52.754;5.994;2023-04-06T12:10:04;12.80;99.90
59128;DHT22;44912;52.754;5.994;2023-04-06T12:12:30;12.50;99.90
59128;DHT22;44912;52.754;5.994;2023-04-06T12:14:56;12.20;99.90
59128;DHT22;44912;52.754;5.994;2023-04-06T12:17:22;12.20;99.90
59128;DHT22;44912;52.754;5.994;2023-04-06T12:19:47;12.20;99.90
59128;DHT22;44912;52.754;5.994;2023-04-06T12:22:13;12.20;99.90
59128;DHT22;44912;52.754;5.994;2023-04-06T12:24:38;12.10;99.90
59128;DHT22;44912;52.754;5.994;2023-04-06T12:27:04;12.10;99.90
59128;DHT22;44912;52.754;5.994;2023-04-06T12:29:30;12.10;99.90
59128;DHT22;44912;52.754;5.994;2023-04-06T12:31:55;12.10;99.90
59128;DHT22;44912;52.754;5.994;2023-04-06T12:34:21;12.00;99.90
59128;DHT22;44912;52.754;5.994;2023-04-06T12:36:47;12.00;99.90
59128;DHT22;44912;52.754;5.994;2023-04-06T12:39:13;11.90;99.90
59128;DHT22;44912;52.754;5.994;2023-04-06T12:41:38;11.80;99.90
59128;DHT22;44912;52.754;5.994;2023-04-06T12:44:07;11.80;99.90
59128;DHT22;44912;52.754;5.994;2023-04-06T12:46:32;11.80;99.90
59128;DHT22;44912;52.754;5.994;2023-04-06T12:48:58;11.80;99.90
59128;DHT22;44912;52.754;5.994;2023-04-06T12:51:26;11.70;99.90
59128;DHT22;44912;52.754;5.994;2023-04-06T12:53:52;11.70;99.90
59128;DHT22;44912;52.754;5.994;2023-04-06T12:56:18;11.60;99.90
59128;DHT22;44912;52.754;5.994;2023-04-06T12:58:44;11.60;99.90
59128;DHT22;44912;52.754;5.994;2023-04-06T13:01:11;11.70;99.90
59128;DHT22;44912;52.754;5.994;2023-04-06T13:03:43;11.60;99.90
59128;DHT22;44912;52.754;5.994;2023-04-06T13:06:09;11.60;99.90
59128;DHT22;44912;52.754;5.994;2023-04-06T13:08:35;11.60;99.90
59128;DHT22;44912;52.754;5.994;2023-04-06T13:11:02;11.50;99.90
59128;DHT22;44912;52.754;5.994;2023-04-06T13:13:29;11.50;99.90
59128;DHT22;44912;52.754;5.994;2023-04-06T13:15:59;11.40;99.90
59128;DHT22;44912;52.754;5.994;2023-04-06T13:18:26;11.40;99.90
59128;DHT22;44912;52.754;5.994;2023-04-06T13:20:52;11.30;99.90
59128;DHT22;44912;52.754;5.994;2023-04-06T13:23:17;11.30;99.90
59128;DHT22;44912;52.754;5.994;2023-04-06T13:25:43;11.30;99.90
59128;DHT22;44912;52.754;5.994;2023-04-06T13:28:09;11.20;99.90
59128;DHT22;44912;52.754;5.994;2023-04-06T13:30:35;11.20;99.90
59128;DHT22;44912;52.754;5.994;2023-04-06T13:33:01;11.20;99.90
59128;DHT22;44912;52.754;5.994;2023-04-06T13:35:27;11.20;99.90
59128;DHT22;44912;52.754;5.994;2023-04-06T13:37:52;11.20;99.90
59128;DHT22;44912;52.754;5.994;2023-04-06T13:40:18;11.00;99.90
59128;DHT22;44912;52.754;5.994;2023-04-06T13:42:44;10.90;99.90
59128;DHT22;44912;52.754;5.994;2023-04-06T13:45:11;10.80;99.90
59128;DHT22;44912;52.754;5.994;2023-04-06T13:47:37;10.80;99.90
59128;DHT22;44912;52.754;5.994;2023-04-06T13:50:03;10.70;99.90
59128;DHT22;44912;52.754;5.994;2023-04-06T13:52:29;10.60;99.90
59128;DHT22;44912;52.754;5.994;2023-04-06T13:54:55;10.50;99.90
59128;DHT22;44912;52.754;5.994;2023-04-06T13:57:28;10.60;99.90
59128;DHT22;44912;52.754;5.994;2023-04-06T13:59:55;10.50;99.90
59128;DHT22;44912;52.754;5.994;2023-04-06T14:02:20;10.50;99.90
59128;DHT22;44912;52.754;5.994;2023-04-06T14:04:52;10.40;99.90
59128;DHT22;44912;52.754;5.994;2023-04-06T14:07:17;10.30;99.90
59128;DHT22;44912;52.754;5.994;2023-04-06T14:09:43;10.20;99.90
59128;DHT22;44912;52.754;5.994;2023-04-06T14:12:08;10.20;99.90
59128;DHT22;44912;52.754;5.994;2023-04-06T14:14:40;10.10;99.90
59128;DHT22;44912;52.754;5.994;2023-04-06T14:17:05;10.10;99.90
59128;DHT22;44912;52.754;5.994;2023-04-06T14:19:31;10.10;99.90
59128;DHT22;44912;52.754;5.994;2023-04-06T14:21:57;10.00;99.90
59128;DHT22;44912;52.754;5.994;2023-04-06T14:24:23;10.00;99.90
59128;DHT22;44912;52.754;5.994;2023-04-06T14:26:48;10.00;99.90
59128;DHT22;44912;52.754;5.994;2023-04-06T14:29:14;10.00;99.90
59128;DHT22;44912;52.754;5.994;2023-04-06T14:31:46;10.00;99.90
59128;DHT22;44912;52.754;5.994;2023-04-06T14:34:12;9.90;99.90
59128;DHT22;44912;52.754;5.994;2023-04-06T14:36:37;9.90;99.90
59128;DHT22;44912;52.754;5.994;2023-04-06T14:39:04;9.80;99.90
59128;DHT22;44912;52.754;5.994;2023-04-06T14:41:35;9.80;99.90
59128;DHT22;44912;52.754;5.994;2023-04-06T14:44:01;9.70;99.90
59128;DHT22;44912;52.754;5.994;2023-04-06T14:46:27;9.70;99.90
59128;DHT22;44912;52.754;5.994;2023-04-06T14:48:59;9.60;99.90
59128;DHT22;44912;52.754;5.994;2023-04-06T14:51:36;9.60;99.90
59128;DHT22;44912;52.754;5.994;2023-04-06T14:54:02;9.60;99.90
59128;DHT22;44912;52.754;5.994;2023-04-06T14:56:30;9.60;99.90
59128;DHT22;44912;52.754;5.994;2023-04-06T14:59:00;9.60;99.90
59128;DHT22;44912;52.754;5.994;2023-04-06T15:01:29;9.50;99.90
59128;DHT22;44912;52.754;5.994;2023-04-06T15:03:58;9.50;99.90
59128;DHT22;44912;52.754;5.994;2023-04-06T15:06:24;9.40;99.90
59128;DHT22;44912;52.754;5.994;2023-04-06T15:08:50;9.30;99.90
59128;DHT22;44912;52.754;5.994;2023-04-06T15:11:16;9.30;99.90
59128;DHT22;44912;52.754;5.994;2023-04-06T15:13:42;9.30;99.90
59128;DHT22;44912;52.754;5.994;2023-04-06T15:16:08;9.30;99.90
59128;DHT22;44912;52.754;5.994;2023-04-06T15:18:34;9.20;99.90
59128;DHT22;44912;52.754;5.994;2023-04-06T15:21:00;9.20;99.90
59128;DHT22;44912;52.754;5.994;2023-04-06T15:23:26;9.20;99.90
59128;DHT22;44912;52.754;5.994;2023-04-06T15:25:55;9.20;99.90
59128;DHT22;44912;52.754;5.994;2023-04-06T15:28:21;9.20;99.90
59128;DHT22;44912;52.754;5.994;2023-04-06T15:30:46;9.20;99.90
59128;DHT22;44912;52.754;5.994;2023-04-06T15:33:12;9.20;99.90
59128;DHT22;44912;52.754;5.994;2023-04-06T15:35:37;9.20;99.90